Time;durP1;ratioP1;P1;durP2;ratioP2;P2;SDS_P1;SDS_P2;PMS_P1;PMS_P2;Temp;Humidity;BMP_temperature;BMP_pressure;BME280_temperature;BME280_humidity;BME280_pressure;Samples;Min_cycle;Max_cycle;Signal;HPM_P1;HPM_P2
2023/04/22 00:00:43;;;;;;;38.65;19.90;;;;;;;9.52;79.95;100152.16;5070245;28;20028;-69
2023/04/22 00:03:08;;;;;;;35.53;21.83;;;;;;;9.55;79.40;100162.63;5070554;28;20051;-68
2023/04/22 00:05:35;;;;;;;39.17;22.05;;;;;;;9.38;79.20;100133.75;5088412;28;20035;-68
2023/04/22 00:08:00;;;;;;;39.53;21.63;;;;;;;9.47;79.58;100159.72;5088515;28;20490;-69
2023/04/22 00:10:26;;;;;;;35.00;20.77;;;;;;;9.45;79.97;100167.06;5088628;28;20028;-69
2023/04/22 00:12:51;;;;;;;36.13;21.45;;;;;;;9.40;80.19;100163.06;5088853;28;20035;-69
2023/04/22 00:15:20;;;;;;;34.10;20.25;;;;;;;9.38;80.04;100162.38;5088046;28;20039;-69
2023/04/22 00:17:46;;;;;;;36.00;21.15;;;;;;;9.19;79.92;100150.53;5088346;28;20058;-68
2023/04/22 00:20:12;;;;;;;33.22;19.58;;;;;;;9.32;79.96;100177.94;5088115;28;20507;-69
2023/04/22 00:22:37;;;;;;;35.15;20.45;;;;;;;9.29;79.99;100174.69;5088233;28;20071;-73
2023/04/22 00:25:03;;;;;;;31.05;20.20;;;;;;;9.22;79.95;100166.34;5088388;28;20035;-73
2023/04/22 00:27:28;;;;;;;33.13;19.45;;;;;;;9.12;79.82;100156.53;5088518;28;20028;-73
2023/04/22 00:29:54;;;;;;;33.47;19.95;;;;;;;9.22;80.01;100166.34;5088449;28;20591;-73
2023/04/22 00:32:21;;;;;;;28.98;18.77;;;;;;;9.18;79.63;100169.38;5088507;28;20027;-73
2023/04/22 00:34:47;;;;;;;32.55;19.85;;;;;;;9.16;79.91;100163.34;5070320;28;20027;-73
2023/04/22 00:37:12;;;;;;;28.75;18.45;;;;;;;9.10;80.65;100153.16;5088382;28;20020;-73
2023/04/22 00:39:38;;;;;;;30.17;19.17;;;;;;;9.06;80.47;100159.72;5070285;28;20465;-72
2023/04/22 00:42:05;;;;;;;29.27;18.98;;;;;;;8.96;79.77;100146.28;5088267;28;20110;-72
2023/04/22 00:44:31;;;;;;;29.40;18.65;;;;;;;9.04;79.44;100162.56;5088383;28;20040;-73
2023/04/22 00:46:58;;;;;;;28.35;19.48;;;;;;;8.96;79.88;100150.75;5069883;28;20028;-73
2023/04/22 00:49:26;;;;;;;28.98;18.65;;;;;;;8.98;79.67;100162.19;5088690;28;20036;-73
2023/04/22 00:51:51;;;;;;;27.60;18.23;;;;;;;8.95;80.66;100159.78;5088379;28;20487;-73
2023/04/22 00:54:17;;;;;;;31.40;18.85;;;;;;;8.92;80.29;100162.72;5069578;28;20028;-73
2023/04/22 00:56:43;;;;;;;26.95;19.08;;;;;;;8.89;80.73;100160.28;5088306;28;20024;-73
2023/04/22 00:59:09;;;;;;;27.63;18.05;;;;;;;8.72;80.74;100145.66;5069824;28;20148;-72
2023/04/22 01:01:35;;;;;;;24.92;18.17;;;;;;;8.82;80.91;100173.34;5088359;28;20583;-73
2023/04/22 01:04:02;;;;;;;28.25;17.42;;;;;;;8.76;81.90;100157.78;5067332;28;20020;-73
2023/04/22 01:06:31;;;;;;;28.48;18.23;;;;;;;8.67;81.95;100147.84;5086805;28;20028;-73
2023/04/22 01:08:57;;;;;;;25.98;17.45;;;;;;;8.56;81.44;100139.03;5088273;28;20368;-73
2023/04/22 01:11:23;;;;;;;27.95;17.15;;;;;;;8.56;81.44;100141.69;5069851;28;20047;-73
2023/04/22 01:13:49;;;;;;;27.92;18.58;;;;;;;8.57;81.56;100154.06;5069508;28;20032;-73
2023/04/22 01:16:14;;;;;;;24.55;17.15;;;;;;;8.53;81.87;100152.63;5084878;28;20024;-69
2023/04/22 01:18:40;;;;;;;28.23;16.45;;;;;;;8.64;82.28;100180.19;5087137;28;20047;-69
2023/04/22 01:21:06;;;;;;;23.52;16.23;;;;;;;8.48;82.73;100152.19;5087514;28;20035;-71
2023/04/22 01:23:32;;;;;;;26.85;17.30;;;;;;;8.57;81.76;100178.13;5087133;28;20560;-72
2023/04/22 01:25:58;;;;;;;29.83;16.67;;;;;;;8.37;82.18;100149.53;5087871;28;20024;-72
2023/04/22 01:28:24;;;;;;;25.90;16.23;;;;;;;8.32;82.11;100152.56;5087961;28;20380;-72
2023/04/22 01:30:51;;;;;;;25.83;16.85;;;;;;;8.45;81.94;100174.63;5069264;28;20043;-72
2023/04/22 01:33:17;;;;;;;30.77;17.23;;;;;;;8.30;82.53;100149.19;5087555;28;20028;-72
2023/04/22 01:35:43;;;;;;;24.25;16.85;;;;;;;8.38;82.49;100173.44;5087257;28;20375;-72
2023/04/22 01:38:10;;;;;;;22.60;16.05;;;;;;;8.39;82.78;100176.97;5086060;28;20031;-72
2023/04/22 01:40:37;;;;;;;26.98;17.42;;;;;;;8.38;82.65;100183.28;5083829;28;20074;-72
2023/04/22 01:43:02;;;;;;;25.98;16.80;;;;;;;8.37;83.31;100184.25;5086732;28;20438;-73
2023/04/22 01:45:28;;;;;;;27.48;16.92;;;;;;;8.23;82.95;100163.16;5069277;28;20079;-72
2023/04/22 01:47:54;;;;;;;24.75;16.42;;;;;;;8.04;82.48;100138.84;5069277;28;20053;-74
2023/04/22 01:50:21;;;;;;;22.95;16.67;;;;;;;8.21;81.88;100173.06;5087298;28;20053;-73
2023/04/22 01:52:46;;;;;;;30.85;18.02;;;;;;;8.18;81.98;100176.00;5086302;28;20031;-73
2023/04/22 01:55:12;;;;;;;24.98;16.35;;;;;;;8.14;81.89;100171.88;5087178;28;20032;-72
2023/04/22 01:57:37;;;;;;;25.05;15.73;;;;;;;8.12;82.05;100180.00;5086944;28;20032;-72
2023/04/22 02:00:04;;;;;;;23.77;16.58;;;;;;;8.08;83.12;100175.03;5087659;28;20028;-72
2023/04/22 02:02:30;;;;;;;26.08;15.70;;;;;;;8.00;82.83;100166.78;5086459;28;20028;-72
2023/04/22 02:04:55;;;;;;;22.88;16.38;;;;;;;7.92;83.15;100162.06;5087176;28;20024;-72
2023/04/22 02:07:21;;;;;;;27.58;16.33;;;;;;;7.98;83.15;100182.94;5086079;28;20032;-67
2023/04/22 02:09:46;;;;;;;25.27;16.20;;;;;;;7.88;83.01;100157.06;5068170;28;20020;-67
2023/04/22 02:12:12;;;;;;;25.35;15.63;;;;;;;7.70;83.37;100138.03;5068381;28;20031;-68
2023/04/22 02:14:37;;;;;;;26.52;16.70;;;;;;;7.81;83.61;100167.41;5086282;28;20020;-68
2023/04/22 02:17:03;;;;;;;29.15;17.73;;;;;;;7.85;83.48;100178.69;5086501;28;20020;-68
2023/04/22 02:19:29;;;;;;;25.55;15.73;;;;;;;7.85;83.61;100176.88;5085613;28;20047;-68
2023/04/22 02:21:54;;;;;;;26.48;17.08;;;;;;;7.66;83.49;100152.59;5086289;28;20040;-68
2023/04/22 02:24:20;;;;;;;26.20;16.17;;;;;;;7.70;83.41;100167.38;5086314;28;20107;-68
2023/04/22 02:26:46;;;;;;;25.83;16.45;;;;;;;7.58;83.25;100154.16;5086481;28;20127;-68
2023/04/22 02:29:12;;;;;;;21.00;14.77;;;;;;;7.68;83.01;100165.81;5086334;28;20028;-68
2023/04/22 02:31:37;;;;;;;25.13;15.88;;;;;;;7.67;83.26;100172.97;5086032;28;20093;-69
2023/04/22 02:34:03;;;;;;;25.38;16.42;;;;;;;7.59;83.58;100162.03;5086343;28;20379;-68
2023/04/22 02:36:28;;;;;;;32.08;16.98;;;;;;;7.49;83.38;100144.19;5086140;28;20119;-67
2023/04/22 02:38:54;;;;;;;24.13;15.80;;;;;;;7.47;84.28;100143.44;5086292;28;20848;-68
2023/04/22 02:41:19;;;;;;;19.75;14.65;;;;;;;7.42;84.13;100140.31;5086140;28;20489;-68
2023/04/22 02:43:45;;;;;;;33.20;16.35;;;;;;;7.58;84.13;100164.84;5086076;28;20471;-68
2023/04/22 02:46:15;;;;;;;22.70;14.15;;;;;;;7.56;83.37;100161.41;5085954;28;20024;-69
2023/04/22 02:48:41;;;;;;;23.55;14.60;;;;;;;7.54;83.76;100163.38;5086146;28;20373;-68
2023/04/22 02:51:07;;;;;;;20.67;15.30;;;;;;;7.43;83.89;100153.53;5086450;28;20429;-68
2023/04/22 02:53:33;;;;;;;24.08;16.13;;;;;;;7.47;84.41;100159.47;5086779;28;20028;-68
2023/04/22 02:55:58;;;;;;;22.77;14.65;;;;;;;7.50;84.66;100167.22;5090358;28;20028;-68
2023/04/22 02:58:25;;;;;;;26.15;15.50;;;;;;;7.37;84.55;100150.47;5090127;28;20032;-68
2023/04/22 03:00:51;;;;;;;25.13;15.50;;;;;;;7.48;84.92;100171.84;5090150;28;20032;-69
2023/04/22 03:03:16;;;;;;;24.95;13.98;;;;;;;7.47;85.18;100167.47;5089886;28;20073;-68
2023/04/22 03:05:42;;;;;;;21.30;14.20;;;;;;;7.45;85.37;100169.41;5093148;28;20026;-68
2023/04/22 03:08:07;;;;;;;22.83;15.10;;;;;;;7.38;84.59;100166.38;5092234;28;20035;-68
2023/04/22 03:10:33;;;;;;;22.23;14.52;;;;;;;7.42;84.56;100175.00;5090324;28;20027;-68
2023/04/22 03:12:58;;;;;;;19.27;13.45;;;;;;;7.22;84.12;100143.69;5077930;28;20142;-69
2023/04/22 03:15:23;;;;;;;23.13;14.52;;;;;;;7.30;84.19;100163.44;5093956;28;20494;-67
2023/04/22 03:17:49;;;;;;;22.02;15.35;;;;;;;7.34;83.63;100177.38;5091515;28;20025;-67
2023/04/22 03:20:15;;;;;;;20.35;14.23;;;;;;;7.28;83.42;100168.03;5092453;28;20036;-67
2023/04/22 03:22:40;;;;;;;22.30;15.43;;;;;;;7.27;84.07;100168.16;5095736;28;20096;-67
2023/04/22 03:25:06;;;;;;;20.75;14.05;;;;;;;7.28;83.72;100177.88;5094529;28;20026;-68
2023/04/22 03:27:32;;;;;;;21.70;14.43;;;;;;;7.25;83.94;100178.13;5091089;28;20032;-68
2023/04/22 03:29:57;;;;;;;25.05;14.75;;;;;;;7.27;84.95;100181.50;5096917;28;20112;-67
2023/04/22 03:32:23;;;;;;;22.33;14.50;;;;;;;7.22;85.24;100173.84;5095908;28;20032;-68
2023/04/22 03:34:48;;;;;;;20.15;13.82;;;;;;;7.14;85.04;100175.41;5088674;28;20039;-68
2023/04/22 03:37:14;;;;;;;23.08;14.63;;;;;;;7.23;84.63;100194.22;5070700;28;20369;-68
2023/04/22 03:39:40;;;;;;;25.95;15.23;;;;;;;7.19;85.07;100186.56;5070841;28;20028;-68
2023/04/22 03:42:05;;;;;;;20.15;14.68;;;;;;;7.16;84.32;100189.47;5089567;28;20036;-68
2023/04/22 03:44:31;;;;;;;22.35;14.88;;;;;;;7.10;83.78;100182.78;5089048;28;20024;-68
2023/04/22 03:46:56;;;;;;;20.38;14.70;;;;;;;7.15;83.72;100199.28;5089068;28;20028;-68
2023/04/22 03:49:21;;;;;;;16.58;12.93;;;;;;;7.09;84.28;100189.06;5089152;28;20032;-68
2023/04/22 03:51:47;;;;;;;23.90;15.02;;;;;;;7.12;84.26;100198.69;5070790;28;20024;-69
2023/04/22 03:54:12;;;;;;;22.40;14.45;;;;;;;7.13;84.47;100197.69;5088822;28;20028;-68
2023/04/22 03:56:38;;;;;;;22.80;14.27;;;;;;;7.13;85.10;100203.91;5070637;28;20115;-67
2023/04/22 03:59:03;;;;;;;23.52;15.27;;;;;;;7.12;85.34;100206.69;5088999;28;20100;-68
2023/04/22 04:01:29;;;;;;;26.00;15.63;;;;;;;7.12;85.05;100198.69;5088608;28;20510;-68
2023/04/22 04:03:54;;;;;;;25.80;15.88;;;;;;;6.95;85.82;100178.59;5070345;28;20036;-68
2023/04/22 04:06:20;;;;;;;24.50;15.07;;;;;;;6.96;85.98;100181.16;5088104;28;20031;-72
2023/04/22 04:08:46;;;;;;;19.35;14.05;;;;;;;7.06;86.15;100201.81;5093667;28;20031;-73
2023/04/22 04:11:11;;;;;;;26.92;16.13;;;;;;;6.88;86.31;100170.25;5092124;28;20019;-73
2023/04/22 04:13:36;;;;;;;23.30;15.35;;;;;;;7.00;86.04;100193.28;5089790;28;20036;-73
2023/04/22 04:16:02;;;;;;;22.85;15.38;;;;;;;7.12;86.42;100212.00;5090981;28;20031;-72
2023/04/22 04:18:28;;;;;;;21.25;15.18;;;;;;;7.16;86.60;100222.31;5090301;28;20419;-73
2023/04/22 04:20:55;;;;;;;20.23;14.55;;;;;;;7.03;86.50;100188.69;5091681;28;20097;-68
2023/04/22 04:23:20;;;;;;;22.92;15.10;;;;;;;7.18;86.85;100206.19;5092415;28;20044;-68
2023/04/22 04:25:46;;;;;;;22.58;15.18;;;;;;;7.18;86.93;100214.19;5089577;28;20056;-68
2023/04/22 04:28:13;;;;;;;28.67;14.57;;;;;;;7.15;87.32;100193.13;5088731;28;20115;-68
2023/04/22 04:30:40;;;;;;;25.05;15.23;;;;;;;7.35;87.85;100221.78;5088198;28;20112;-68
2023/04/22 04:33:07;;;;;;;29.38;16.90;;;;;;;7.35;87.91;100214.63;5088741;28;20036;-68
2023/04/22 04:35:34;;;;;;;22.65;15.15;;;;;;;7.55;88.45;100229.97;5088460;28;20020;-69
2023/04/22 04:38:01;;;;;;;26.33;14.25;;;;;;;7.67;87.83;100244.19;5088746;28;20641;-68
2023/04/22 04:40:28;;;;;;;26.55;14.10;;;;;;;7.54;87.94;100212.25;5070221;28;20415;-68
2023/04/22 04:42:54;;;;;;;23.90;14.43;;;;;;;7.70;87.93;100209.25;5087653;28;20502;-68
2023/04/22 04:45:21;;;;;;;20.40;14.52;;;;;;;7.92;87.17;100238.63;5088529;28;20023;-68
2023/04/22 04:47:49;;;;;;;18.98;13.48;;;;;;;7.93;85.53;100219.00;5069768;28;20062;-68
2023/04/22 04:50:15;;;;;;;20.00;13.52;;;;;;;8.13;85.33;100232.44;5070356;28;20122;-68
2023/04/22 04:52:41;;;;;;;19.55;13.15;;;;;;;8.28;83.76;100231.28;5090601;28;20039;-69
2023/04/22 04:55:06;;;;;;;19.92;12.73;;;;;;;8.42;82.67;100235.53;5070224;28;20040;-69
2023/04/22 04:57:32;;;;;;;17.70;11.73;;;;;;;8.52;80.23;100228.47;5087878;28;20110;-68
2023/04/22 04:59:57;;;;;;;16.10;11.00;;;;;;;8.73;79.16;100238.25;5085060;28;20024;-67
2023/04/22 05:02:23;;;;;;;18.98;10.93;;;;;;;8.92;77.96;100245.63;5083679;28;20107;-67
2023/04/22 05:04:48;;;;;;;15.15;11.73;;;;;;;9.05;77.08;100249.84;5085490;28;20035;-68
2023/04/22 05:07:14;;;;;;;13.65;9.77;;;;;;;9.22;75.25;100249.28;5086679;28;20543;-68
2023/04/22 05:09:39;;;;;;;18.25;10.60;;;;;;;9.40;73.41;100249.56;5087606;28;20146;-67
2023/04/22 05:12:05;;;;;;;14.32;9.95;;;;;;;9.55;72.23;100247.44;5088026;28;20073;-67
2023/04/22 05:14:30;;;;;;;15.27;9.95;;;;;;;9.70;71.64;100243.47;5069014;28;20039;-68
2023/04/22 05:16:56;;;;;;;16.58;10.38;;;;;;;9.88;70.99;100244.53;5068144;28;20028;-68
2023/04/22 05:19:22;;;;;;;16.88;9.63;;;;;;;9.94;70.40;100231.47;5087461;28;20043;-72
2023/04/22 05:21:47;;;;;;;16.13;10.15;;;;;;;10.15;70.28;100240.34;5087241;28;20040;-72
2023/04/22 05:24:12;;;;;;;14.68;9.77;;;;;;;10.36;70.73;100238.47;5087813;28;20019;-71
2023/04/22 05:26:38;;;;;;;17.13;9.48;;;;;;;10.54;70.30;100242.19;5087774;28;20026;-72
2023/04/22 05:29:03;;;;;;;14.55;8.02;;;;;;;10.67;68.83;100226.72;5069866;28;20467;-72
2023/04/22 05:31:29;;;;;;;11.50;7.88;;;;;;;10.88;68.10;100222.13;5087830;28;20039;-71
2023/04/22 05:33:54;;;;;;;12.27;7.85;;;;;;;11.15;66.77;100218.72;5084952;28;20035;-72
2023/04/22 05:36:20;;;;;;;12.00;7.65;;;;;;;11.51;65.55;100232.28;5087893;28;20056;-72
2023/04/22 05:38:46;;;;;;;13.38;7.38;;;;;;;11.80;64.60;100245.72;5087168;28;20057;-72
2023/04/22 05:41:11;;;;;;;13.35;7.80;;;;;;;12.08;63.50;100233.19;5087563;28;20028;-72
2023/04/22 05:43:36;;;;;;;10.13;6.75;;;;;;;12.27;61.83;100219.69;5087468;28;20497;-73
2023/04/22 05:46:02;;;;;;;11.50;6.72;;;;;;;12.62;60.35;100244.03;5087817;28;20028;-73
2023/04/22 05:59:00;;;;;;;10.93;5.80;;;;;;;14.02;53.23;100237.84;5109343;27;20381;-61
2023/04/22 06:01:26;;;;;;;10.48;6.28;;;;;;;14.32;52.66;100243.59;5106525;28;20040;-61
2023/04/22 06:03:51;;;;;;;12.88;6.60;;;;;;;14.50;50.19;100238.13;5106151;28;20087;-61
2023/04/22 06:06:17;;;;;;;9.75;6.90;;;;;;;14.78;49.38;100237.75;5105897;28;20038;-61
2023/04/22 06:08:43;;;;;;;11.18;6.40;;;;;;;14.97;49.24;100242.88;5106007;28;20027;-62
2023/04/22 06:11:08;;;;;;;9.13;6.57;;;;;;;15.18;48.95;100247.81;5105845;28;20028;-61
2023/04/22 06:13:34;;;;;;;11.45;6.10;;;;;;;15.40;48.29;100253.47;5104203;28;20043;-62
2023/04/22 06:16:00;;;;;;;9.77;6.05;;;;;;;15.51;47.94;100241.50;5105480;28;20042;-62
2023/04/22 06:18:26;;;;;;;14.90;7.05;;;;;;;15.68;47.50;100230.50;5105591;28;20024;-62
2023/04/22 06:20:51;;;;;;;11.25;7.40;;;;;;;16.14;45.60;100255.13;5105224;28;20038;-62
2023/04/22 06:23:17;;;;;;;11.25;6.78;;;;;;;16.27;45.27;100250.03;5105435;28;20047;-61
2023/04/22 06:25:42;;;;;;;9.10;6.70;;;;;;;16.41;46.21;100249.34;5105214;28;20028;-62
2023/04/22 06:28:08;;;;;;;10.15;5.72;;;;;;;16.58;45.05;100248.31;5105335;28;20011;-61
2023/04/22 06:30:34;;;;;;;9.98;6.55;;;;;;;16.78;44.23;100242.31;5105061;28;20039;-62
2023/04/22 06:32:59;;;;;;;12.80;6.50;;;;;;;16.98;44.43;100245.41;5105274;28;20495;-62
2023/04/22 06:35:25;;;;;;;11.55;6.85;;;;;;;17.17;43.44;100245.81;5101948;28;20046;-62
2023/04/22 06:37:51;;;;;;;9.95;6.95;;;;;;;17.40;42.38;100253.97;5104651;28;20292;-62
2023/04/22 06:40:16;;;;;;;10.68;6.50;;;;;;;17.57;42.27;100247.41;5105236;28;20020;-62
2023/04/22 06:42:41;;;;;;;12.77;6.68;;;;;;;17.75;42.46;100250.69;5104782;28;20024;-62
2023/04/22 06:45:08;;;;;;;10.02;6.45;;;;;;;17.94;42.01;100247.47;5104868;28;20040;-62
2023/04/22 06:47:33;;;;;;;11.30;6.43;;;;;;;18.15;40.88;100244.88;5104447;28;20546;-62
2023/04/22 06:50:00;;;;;;;11.98;6.35;;;;;;;18.27;41.68;100256.13;5104903;28;20027;-62
2023/04/22 06:52:26;;;;;;;14.02;6.50;;;;;;;18.43;41.46;100243.25;5104705;28;20027;-61
2023/04/22 06:54:52;;;;;;;11.40;6.70;;;;;;;18.65;40.79;100253.19;5104803;28;20080;-61
2023/04/22 06:57:17;;;;;;;11.73;7.13;;;;;;;18.89;40.20;100252.88;5104419;28;20070;-62
2023/04/22 06:59:42;;;;;;;10.93;6.70;;;;;;;19.02;40.42;100239.47;5085052;28;20036;-62
2023/04/22 07:02:08;;;;;;;13.80;6.57;;;;;;;19.25;39.96;100251.03;5094062;28;20032;-61
2023/04/22 07:04:33;;;;;;;11.20;6.65;;;;;;;19.35;39.65;100231.72;5104940;28;20106;-63
2023/04/22 07:07:00;;;;;;;11.93;6.55;;;;;;;19.62;39.34;100255.44;5100710;28;20023;-62
2023/04/22 07:09:26;;;;;;;9.45;5.93;;;;;;;19.84;38.19;100251.69;5099109;28;20040;-61
2023/04/22 07:11:51;;;;;;;11.55;7.43;;;;;;;19.94;38.41;100250.31;5104611;28;20031;-62
2023/04/22 07:14:17;;;;;;;8.30;6.40;;;;;;;20.21;37.73;100247.84;5086802;28;20019;-63
2023/04/22 07:16:42;;;;;;;9.88;6.80;;;;;;;20.23;38.26;100254.78;5089577;28;20535;-62
2023/04/22 07:19:08;;;;;;;10.55;6.68;;;;;;;20.26;38.08;100250.78;5107495;28;20035;-62
2023/04/22 07:21:33;;;;;;;10.80;6.03;;;;;;;20.39;37.33;100262.63;5095291;28;20031;-62
2023/04/22 07:23:58;;;;;;;10.65;6.82;;;;;;;20.48;37.50;100256.00;5102097;28;20031;-62
2023/04/22 07:26:24;;;;;;;9.35;5.95;;;;;;;20.61;37.52;100257.97;5091934;28;20687;-63
2023/04/22 07:28:50;;;;;;;11.23;7.38;;;;;;;20.72;37.67;100251.94;5101614;28;20035;-62
2023/04/22 07:31:15;;;;;;;7.70;6.22;;;;;;;20.85;37.39;100257.44;5083381;28;20051;-68
2023/04/22 07:33:41;;;;;;;8.05;6.40;;;;;;;20.95;36.42;100258.81;5099530;28;20089;-68
2023/04/22 07:36:06;;;;;;;10.32;6.20;;;;;;;21.09;36.37;100254.25;5092148;28;20105;-68
2023/04/22 07:38:32;;;;;;;13.60;6.90;;;;;;;21.17;36.43;100245.88;5092119;28;20035;-68
2023/04/22 07:40:57;;;;;;;8.98;6.47;;;;;;;21.34;35.81;100255.38;5105985;28;20035;-69
2023/04/22 07:43:23;;;;;;;6.18;5.20;;;;;;;21.47;35.72;100260.91;5093351;28;20034;-68
2023/04/22 07:45:48;;;;;;;9.73;6.07;;;;;;;21.63;33.79;100265.94;5076983;28;20027;-68
2023/04/22 07:48:14;;;;;;;7.25;5.82;;;;;;;21.66;34.28;100268.25;5100738;28;20392;-68
2023/04/22 07:50:39;;;;;;;8.73;5.85;;;;;;;21.78;33.89;100262.03;5095365;28;20032;-68
2023/04/22 07:53:05;;;;;;;9.10;6.28;;;;;;;21.83;33.94;100262.25;5095697;28;20020;-68
2023/04/22 07:55:30;;;;;;;12.10;6.00;;;;;;;21.92;34.56;100243.75;5095958;28;20044;-69
2023/04/22 07:57:56;;;;;;;13.80;6.25;;;;;;;22.16;35.16;100267.72;5099694;28;20500;-69
2023/04/22 08:00:22;;;;;;;11.43;5.68;;;;;;;22.27;34.34;100257.00;5101601;28;20020;-68
2023/04/22 08:02:47;;;;;;;11.23;5.88;;;;;;;22.39;34.29;100259.94;5096069;28;20035;-68
2023/04/22 08:05:13;;;;;;;13.50;5.72;;;;;;;22.49;34.82;100259.50;5092991;28;20081;-68
2023/04/22 08:07:38;;;;;;;8.73;5.70;;;;;;;22.61;34.24;100260.56;5107897;28;20027;-68
2023/04/22 08:10:05;;;;;;;11.98;6.32;;;;;;;22.73;33.37;100262.41;5103804;28;20030;-68
2023/04/22 08:12:30;;;;;;;10.93;6.40;;;;;;;22.91;33.44;100265.31;5080655;28;20113;-69
2023/04/22 08:14:57;;;;;;;9.55;5.78;;;;;;;23.12;33.20;100242.31;5096989;28;20039;-68
2023/04/22 08:17:22;;;;;;;11.07;5.70;;;;;;;23.51;32.44;100264.84;5092705;28;20057;-68
2023/04/22 08:19:48;;;;;;;9.93;5.60;;;;;;;24.03;31.79;100264.56;5093268;28;20032;-68
2023/04/22 08:22:14;;;;;;;9.63;5.47;;;;;;;24.42;30.07;100250.50;5096732;28;20480;-68
2023/04/22 08:24:40;;;;;;;8.25;5.30;;;;;;;24.98;29.45;100242.09;5097117;28;20049;-69
2023/04/22 08:27:06;;;;;;;8.63;5.38;;;;;;;26.02;29.46;100253.59;5088808;28;20012;-68
2023/04/22 08:29:32;;;;;;;9.10;5.13;;;;;;;27.37;26.36;100258.69;5089023;28;20031;-67
2023/04/22 08:31:57;;;;;;;5.47;4.70;;;;;;;28.53;24.97;100234.88;5103710;28;20082;-66
2023/04/22 08:34:24;;;;;;;7.38;5.55;;;;;;;29.57;24.24;100247.63;5104161;28;20741;-67
2023/04/22 08:36:50;;;;;;;5.38;4.78;;;;;;;30.39;22.66;100247.06;5091251;28;20016;-68
2023/04/22 08:39:17;;;;;;;6.68;4.80;;;;;;;30.75;22.39;100252.88;5101227;28;21150;-67
2023/04/22 08:41:44;;;;;;;8.32;4.90;;;;;;;31.24;21.17;100243.97;5101882;28;20028;-67
2023/04/22 08:44:10;;;;;;;9.18;5.30;;;;;;;31.02;21.89;100248.03;5103037;28;20073;-67
2023/04/22 08:46:36;;;;;;;6.20;4.63;;;;;;;30.97;21.83;100254.38;5095976;28;20024;-67
2023/04/22 08:49:02;;;;;;;8.48;5.40;;;;;;;30.88;21.03;100256.00;5100115;28;20105;-67
2023/04/22 08:51:31;;;;;;;8.50;5.03;;;;;;;30.50;21.42;100240.50;5075975;28;20035;-68
2023/04/22 08:53:56;;;;;;;9.90;4.97;;;;;;;30.89;21.52;100243.00;5078650;28;20415;-67
2023/04/22 08:56:23;;;;;;;6.43;4.82;;;;;;;30.20;21.34;100247.72;5097248;28;20020;-67
2023/04/22 08:58:50;;;;;;;9.10;4.60;;;;;;;29.23;22.77;100248.84;5069998;28;20553;-67
2023/04/22 09:01:16;;;;;;;5.85;4.53;;;;;;;28.53;23.36;100240.41;5068750;28;20025;-67
2023/04/22 09:03:43;;;;;;;5.35;4.65;;;;;;;27.92;24.05;100254.28;5068941;28;20469;-68
2023/04/22 09:06:10;;;;;;;8.10;5.00;;;;;;;27.45;24.60;100258.28;5069107;28;20022;-67
2023/04/22 09:08:36;;;;;;;7.47;5.65;;;;;;;26.90;25.12;100244.19;5068730;28;20033;-67
2023/04/22 09:11:02;;;;;;;7.85;5.47;;;;;;;26.58;25.65;100245.63;5066222;28;20020;-67
2023/04/22 09:13:28;;;;;;;5.95;5.15;;;;;;;26.29;25.94;100250.16;5068612;28;20370;-67
2023/04/22 09:15:53;;;;;;;10.82;5.25;;;;;;;26.27;25.06;100254.19;5054725;28;20032;-67
2023/04/22 09:18:20;;;;;;;8.57;4.60;;;;;;;26.31;25.20;100247.19;5067771;28;20491;-67
2023/04/22 09:20:53;;;;;;;5.95;4.82;;;;;;;26.09;25.58;100249.63;5068295;28;20593;-68
2023/04/22 09:23:18;;;;;;;9.07;5.88;;;;;;;25.81;25.51;100245.84;5068158;28;20029;-68
2023/04/22 09:25:45;;;;;;;9.80;5.88;;;;;;;25.59;26.39;100248.28;5068428;28;20047;-68
2023/04/22 09:28:15;;;;;;;9.10;5.55;;;;;;;25.49;26.55;100247.16;5068343;28;20103;-67
2023/04/22 09:30:44;;;;;;;10.07;6.03;;;;;;;25.31;26.98;100238.97;5066067;28;20078;-68
2023/04/22 09:33:12;;;;;;;12.32;6.00;;;;;;;25.19;27.28;100244.38;5068273;28;20086;-68
2023/04/22 09:35:39;;;;;;;8.82;4.97;;;;;;;25.10;27.07;100239.44;5056674;28;20020;-68
2023/04/22 09:38:08;;;;;;;5.35;4.78;;;;;;;25.39;25.94;100245.00;5068005;28;20016;-63
2023/04/22 09:40:35;;;;;;;7.20;5.03;;;;;;;25.21;26.51;100236.75;5068204;28;20032;-63
2023/04/22 09:43:03;;;;;;;9.60;5.15;;;;;;;25.14;27.22;100246.13;5068362;28;20124;-62
2023/04/22 09:45:40;;;;;;;10.70;5.60;;;;;;;25.13;26.30;100241.72;5068485;28;20758;-62
2023/04/22 09:48:08;;;;;;;8.80;5.47;;;;;;;24.94;27.58;100237.31;5067108;28;20020;-63
2023/04/22 09:50:34;;;;;;;8.68;5.20;;;;;;;24.79;27.16;100229.44;5068375;28;20032;-63
2023/04/22 09:53:04;;;;;;;9.95;5.13;;;;;;;24.64;26.97;100219.94;5067185;28;20094;-63
2023/04/22 09:55:33;;;;;;;8.35;5.53;;;;;;;24.55;27.29;100224.00;5066880;28;20476;-62
2023/04/22 09:58:08;;;;;;;9.05;5.65;;;;;;;24.89;26.35;100226.19;5068040;28;20047;-62
2023/04/22 10:00:38;;;;;;;8.80;4.90;;;;;;;24.71;26.86;100215.19;5065103;28;20040;-62
2023/04/22 10:03:05;;;;;;;6.05;4.53;;;;;;;24.63;27.01;100220.97;5067455;28;20121;-62
2023/04/22 10:05:36;;;;;;;9.77;4.57;;;;;;;24.78;26.43;100221.44;5067250;28;20052;-62
2023/04/22 10:08:02;;;;;;;7.28;4.75;;;;;;;24.66;27.25;100220.56;5068264;28;20027;-62
2023/04/22 10:10:28;;;;;;;10.00;5.03;;;;;;;24.48;27.10;100204.88;5052563;28;20040;-62
2023/04/22 10:13:01;;;;;;;6.63;4.53;;;;;;;24.58;26.12;100220.81;5068900;23;20061;-62
2023/04/22 10:15:44;;;;;;;7.38;4.65;;;;;;;24.48;25.87;100211.19;5066906;28;20488;-62
2023/04/22 10:18:12;;;;;;;4.93;3.78;;;;;;;24.45;25.43;100202.59;5064631;28;20414;-62
2023/04/22 10:20:41;;;;;;;8.68;4.88;;;;;;;24.25;25.36;100186.34;5067417;28;20553;-62
2023/04/22 10:23:13;;;;;;;7.32;4.63;;;;;;;24.25;24.93;100183.59;5067506;28;21919;-62
2023/04/22 10:25:39;;;;;;;6.03;3.88;;;;;;;24.24;25.57;100201.09;5067833;28;20032;-65
2023/04/22 10:28:06;;;;;;;6.03;4.63;;;;;;;24.18;26.92;100203.91;5050196;28;20031;-62
2023/04/22 10:30:36;;;;;;;9.75;5.20;;;;;;;24.02;27.05;100191.63;5067733;28;20032;-62
2023/04/22 10:33:20;;;;;;;8.85;4.95;;;;;;;23.89;26.35;100208.13;5067939;28;20060;-61
2023/04/22 10:36:08;;;;;;;9.65;3.78;;;;;;;23.79;26.39;100198.72;5086367;28;20039;-61
2023/04/22 10:38:53;;;;;;;8.13;4.45;;;;;;;23.67;26.30;100203.25;5072947;28;20123;-62
2023/04/22 10:41:21;;;;;;;;;;;;;;;23.63;26.55;100205.59;5071146;28;20514;-62
2023/04/22 10:43:54;;;;;;;5.38;3.95;;;;;;;23.63;26.92;100207.53;5070451;28;20391;-62
2023/04/22 10:46:33;;;;;;;8.98;4.65;;;;;;;23.59;26.07;100198.91;5071736;28;20024;-62
2023/04/22 10:49:05;;;;;;;7.10;3.83;;;;;;;23.57;26.42;100209.22;5053066;28;20044;-63
2023/04/22 10:51:40;;;;;;;5.28;4.00;;;;;;;23.56;26.28;100204.81;5054097;28;20111;-62
2023/04/22 10:54:07;;;;;;;5.20;4.10;;;;;;;23.58;26.62;100205.44;5071583;28;20111;-63
2023/04/22 10:56:32;;;;;;;10.90;4.40;;;;;;;23.59;26.02;100196.16;5074659;28;20032;-61
2023/04/22 10:58:58;;;;;;;7.50;4.38;;;;;;;23.57;26.60;100192.78;5074864;28;20039;-62
2023/04/22 11:01:26;;;;;;;7.95;4.53;;;;;;;23.65;26.35;100198.00;5080682;28;20509;-62
2023/04/22 11:03:52;;;;;;;16.10;4.85;;;;;;;23.63;26.50;100191.09;5093639;28;20071;-62
2023/04/22 11:06:21;;;;;;;7.20;4.20;;;;;;;23.58;27.22;100194.50;5073416;28;20386;-62
2023/04/22 11:09:06;;;;;;;6.85;4.45;;;;;;;23.53;26.88;100187.97;5070958;28;20032;-62
2023/04/22 11:11:31;;;;;;;5.32;4.30;;;;;;;23.61;26.48;100185.84;5059004;28;20033;-61
2023/04/22 11:13:57;;;;;;;4.43;3.70;;;;;;;23.66;26.51;100190.63;5072821;28;20515;-61
2023/04/22 11:16:23;;;;;;;6.25;4.45;;;;;;;23.62;26.54;100183.91;5072083;28;20143;-62
2023/04/22 11:18:48;;;;;;;8.85;4.47;;;;;;;23.58;26.93;100191.75;5069800;28;20670;-61
2023/04/22 11:21:15;;;;;;;5.00;4.28;;;;;;;23.58;26.65;100183.53;5054184;28;20032;-62
2023/04/22 11:23:51;;;;;;;10.63;4.70;;;;;;;23.60;26.58;100184.13;5051541;28;20060;-62
2023/04/22 11:26:17;;;;;;;7.75;4.60;;;;;;;23.69;26.03;100176.47;5051581;28;20105;-61